Time;durP1;ratioP1;P1;durP2;ratioP2;P2;SDS_P1;SDS_P2;PMS_P1;PMS_P2;Temp;Humidity;BMP_temperature;BMP_pressure;BME280_temperature;BME280_humidity;BME280_pressure;Samples;Min_cycle;Max_cycle;Signal;HPM_P1;HPM_P2
2023/07/06 11:32:30;;;;;;;10.57;4.70;;;;;;;24.12;73.30;-18674.31;5063835;28;20050;-79
2023/07/06 11:35:11;;;;;;;8.68;4.40;;;;;;;24.10;69.30;-18673.91;5060671;28;20071;-79
2023/07/06 11:37:38;;;;;;;5.97;3.08;;;;;;;23.95;61.33;-18669.72;5067046;28;20072;-79
2023/07/06 11:40:19;;;;;;;6.45;4.13;;;;;;;24.33;64.28;-18680.00;5074910;28;20138;-79
2023/07/06 11:43:22;;;;;;;10.30;4.13;;;;;;;24.46;62.93;-18683.41;5078742;28;20032;-79
2023/07/06 11:52:29;;;;;;;8.57;3.38;;;;;;;24.62;61.15;-18687.47;5038014;28;20047;-79
2023/07/06 11:55:14;;;;;;;6.20;2.80;;;;;;;24.74;62.32;-18690.84;5060479;28;20846;-79
2023/07/06 11:57:54;;;;;;;8.98;3.65;;;;;;;25.05;60.40;-18698.97;5058522;28;20040;-79
2023/07/06 12:02:58;;;;;;;6.68;3.20;;;;;;;24.91;59.44;-18695.19;5070529;28;20105;-79
2023/07/06 12:05:33;;;;;;;9.00;3.95;;;;;;;25.05;58.65;-18698.97;5086216;28;20115;-79
2023/07/06 12:08:16;;;;;;;8.70;3.90;;;;;;;25.12;62.34;-18700.75;5074702;28;20086;-79
2023/07/06 12:10:45;;;;;;;10.00;3.20;;;;;;;25.13;57.08;-18701.00;5074504;28;20311;-80
2023/07/06 12:13:25;;;;;;;7.22;4.05;;;;;;;25.18;60.00;-18702.50;5080920;28;20040;-79
2023/07/06 12:19:17;;;;;;;3.83;1.90;;;;;;;25.49;50.83;-18710.63;5054997;28;20118;-78
2023/07/06 12:21:54;;;;;;;6.28;2.75;;;;;;;25.79;50.02;-18718.47;5073435;28;20051;-79
2023/07/06 12:24:23;;;;;;;5.68;2.88;;;;;;;25.62;49.13;-18714.13;5067782;28;20047;-80
2023/07/06 12:26:59;;;;;;;5.03;2.63;;;;;;;25.87;51.35;-18720.78;5080854;28;20093;-79
2023/07/06 12:29:29;;;;;;;10.05;3.13;;;;;;;25.64;51.30;-18714.56;5075769;28;20039;-80
2023/07/06 12:32:00;;;;;;;7.80;3.08;;;;;;;25.85;49.59;-18720.22;5063436;28;20620;-79
2023/07/06 12:34:30;;;;;;;6.57;2.80;;;;;;;26.06;48.80;-18725.78;5081797;28;20131;-80
2023/07/06 12:37:00;;;;;;;10.23;3.72;;;;;;;26.10;49.32;-18726.72;5077081;28;20109;-79
2023/07/06 12:39:27;;;;;;;7.47;3.67;;;;;;;26.29;50.23;-18731.84;5076194;28;20059;-79
2023/07/06 12:41:53;;;;;;;7.30;3.28;;;;;;;26.28;48.28;-18731.59;5075028;28;20048;-80
2023/07/06 12:44:22;;;;;;;5.22;2.80;;;;;;;25.85;47.63;-18720.22;5079832;28;20055;-78
2023/07/06 12:50:26;;;;;;;6.75;3.00;;;;;;;26.06;50.02;-18725.63;5050880;28;20052;-79
2023/07/06 12:53:02;;;;;;;7.78;3.30;;;;;;;26.49;51.47;-18737.13;5071973;28;20565;-79
2023/07/06 12:55:31;;;;;;;7.47;3.88;;;;;;;26.07;49.96;-18725.91;5072533;28;20040;-79
2023/07/06 12:57:56;;;;;;;;;;;;;;;26.37;55.08;-18733.75;5073747;28;20067;-80
2023/07/06 13:00:24;;;;;;;7.00;3.73;;;;;;;26.67;52.39;-18741.88;5078331;28;20557;-80
2023/07/06 13:02:56;;;;;;;8.23;3.65;;;;;;;26.82;52.43;-18745.66;5077431;28;20278;-78
2023/07/06 13:05:27;;;;;;;6.55;3.33;;;;;;;27.11;49.10;-18753.47;5074286;28;20044;-80
2023/07/06 13:07:54;;;;;;;7.75;2.78;;;;;;;27.25;48.73;-18757.00;5074718;28;20040;-80
2023/07/06 13:10:26;;;;;;;7.13;3.05;;;;;;;27.08;46.22;-18752.69;5084416;28;20373;-79
2023/07/06 13:12:55;;;;;;;6.65;3.20;;;;;;;27.04;48.41;-18751.47;5078177;28;20473;-79
2023/07/06 13:18:11;;;;;;;5.18;2.70;;;;;;;26.86;49.40;-18746.72;5027739;28;20126;-84
2023/07/06 13:20:41;;;;;;;7.35;3.25;;;;;;;26.83;46.74;-18745.91;5036204;28;20056;-83
2023/07/06 13:23:20;;;;;;;4.38;2.70;;;;;;;26.94;45.18;-18749.03;5040168;28;20111;-83
2023/07/06 13:29:15;;;;;;;7.05;3.03;;;;;;;26.45;47.70;-18736.06;5034204;28;20047;-77
2023/07/06 13:31:45;;;;;;;6.10;3.08;;;;;;;26.42;47.54;-18735.25;5060322;28;20094;-79
2023/07/06 13:34:11;;;;;;;5.32;2.58;;;;;;;26.92;46.79;-18748.34;5044036;28;20656;-79
2023/07/06 13:36:38;;;;;;;4.30;2.00;;;;;;;26.94;42.33;-18749.03;5070216;28;20632;-78
2023/07/06 13:39:06;;;;;;;4.60;1.42;;;;;;;26.99;42.42;-18750.38;5084353;28;20093;-78
2023/07/06 13:41:34;;;;;;;5.25;1.85;;;;;;;26.99;43.45;-18750.38;5080858;28;20071;-79
2023/07/06 13:44:00;;;;;;;7.07;2.35;;;;;;;27.00;44.34;-18750.50;5089227;28;20048;-78
2023/07/06 13:46:26;;;;;;;4.38;2.03;;;;;;;26.79;44.02;-18744.97;5078218;28;20040;-77
2023/07/06 13:48:51;;;;;;;6.22;2.30;;;;;;;26.52;44.93;-18737.81;5081010;28;20097;-77
2023/07/06 13:51:16;;;;;;;8.75;2.10;;;;;;;26.70;45.44;-18742.69;5080725;28;20029;-77
2023/07/06 13:53:43;;;;;;;4.50;1.92;;;;;;;26.54;43.19;-18738.34;5081967;28;20574;-78
2023/07/06 13:56:15;;;;;;;6.43;2.15;;;;;;;26.77;44.80;-18744.56;5082939;28;20040;-77
2023/07/06 13:58:42;;;;;;;5.55;1.77;;;;;;;27.01;44.78;-18750.78;5076764;28;20472;-78
2023/07/06 14:01:12;;;;;;;4.00;1.75;;;;;;;27.03;42.13;-18751.19;5081823;28;20569;-77
2023/07/06 14:06:59;;;;;;;5.80;1.90;;;;;;;26.78;43.25;-18744.84;5065158;28;20036;-76
2023/07/06 14:09:25;;;;;;;3.38;1.75;;;;;;;26.78;42.21;-18744.84;5080017;28;20036;-75
2023/07/06 14:11:51;;;;;;;4.35;1.80;;;;;;;26.92;44.05;-18748.34;5081228;28;20074;-77
2023/07/06 14:17:38;;;;;;;4.20;2.00;;;;;;;26.76;48.01;-18744.31;5051392;28;20113;-78
2023/07/06 14:20:04;;;;;;;6.20;2.13;;;;;;;26.71;42.55;-18742.94;5065221;28;20441;-78
2023/07/06 14:22:30;;;;;;;5.10;1.95;;;;;;;26.34;41.82;-18733.22;5080600;28;20040;-77
2023/07/06 14:24:56;;;;;;;4.45;2.20;;;;;;;26.23;42.97;-18730.09;5086964;28;20037;-78
2023/07/06 14:27:22;;;;;;;3.85;2.25;;;;;;;26.19;45.02;-18729.03;5089506;28;20044;-78
2023/07/06 14:29:47;;;;;;;3.92;2.10;;;;;;;26.73;44.72;-18743.50;5069361;28;20055;-78
2023/07/06 14:32:16;;;;;;;9.20;2.22;;;;;;;26.90;42.27;-18747.81;5088318;28;20104;-77
2023/07/06 14:34:46;;;;;;;3.67;1.85;;;;;;;26.46;41.35;-18736.19;5085681;28;20056;-78
2023/07/06 14:37:12;;;;;;;5.95;2.13;;;;;;;26.52;42.73;-18737.94;5090035;28;20437;-78
2023/07/06 14:39:38;;;;;;;4.88;2.10;;;;;;;27.15;44.04;-18754.56;5087525;28;20059;-77
2023/07/06 14:42:07;;;;;;;5.25;1.88;;;;;;;27.43;42.38;-18761.84;5063551;28;20499;-78
2023/07/06 14:44:35;;;;;;;5.72;2.22;;;;;;;27.32;39.78;-18759.03;5066617;28;20043;-77
2023/07/06 14:47:00;;;;;;;5.93;2.53;;;;;;;27.44;39.51;-18762.13;5081328;28;20142;-78
2023/07/06 14:49:26;;;;;;;6.55;1.95;;;;;;;27.07;40.17;-18752.41;5079208;28;20043;-78
2023/07/06 14:51:51;;;;;;;4.53;2.20;;;;;;;26.70;42.27;-18742.53;5078955;28;20052;-77
2023/07/06 14:54:19;;;;;;;3.63;1.73;;;;;;;26.67;41.99;-18741.72;5080490;28;20036;-77
2023/07/06 14:56:44;;;;;;;8.15;2.40;;;;;;;26.62;41.78;-18740.50;5065644;28;20093;-77
2023/07/06 14:59:10;;;;;;;4.47;2.40;;;;;;;26.36;41.91;-18733.47;5071816;28;20632;-78
2023/07/06 15:01:35;;;;;;;5.60;2.10;;;;;;;26.50;45.14;-18737.41;5069131;28;20055;-77
2023/07/06 15:04:01;;;;;;;6.35;2.13;;;;;;;26.49;42.87;-18737.13;5068337;28;21740;-77
2023/07/06 15:06:26;;;;;;;8.18;2.35;;;;;;;26.34;44.52;-18733.22;5069747;28;20081;-77
2023/07/06 15:08:52;;;;;;;4.38;1.83;;;;;;;26.26;42.02;-18731.03;5070132;28;20110;-76
2023/07/06 15:11:21;;;;;;;3.67;2.08;;;;;;;26.16;43.46;-18728.22;5054021;28;20735;-77
2023/07/06 15:13:46;;;;;;;4.13;1.80;;;;;;;25.98;42.54;-18723.47;5067874;28;20044;-77
2023/07/06 15:16:11;;;;;;;3.30;2.10;;;;;;;26.17;43.31;-18728.63;5070055;28;20123;-78
2023/07/06 15:18:37;;;;;;;7.63;3.40;;;;;;;26.38;47.81;-18734.03;5058128;28;20104;-76
2023/07/06 15:21:15;;;;;;;8.48;3.55;;;;;;;26.55;50.69;-18738.63;5060372;28;20513;-78
2023/07/06 15:23:41;;;;;;;11.07;4.70;;;;;;;26.53;51.61;-18738.22;5079149;28;20132;-77
2023/07/06 15:26:07;;;;;;;7.75;4.70;;;;;;;26.57;53.63;-18739.16;5079548;28;20113;-78
2023/07/06 15:28:33;;;;;;;10.15;4.30;;;;;;;26.40;53.58;-18734.56;5080303;28;20051;-78
2023/07/06 15:30:58;;;;;;;10.93;5.00;;;;;;;26.49;57.03;-18737.00;5074969;28;20040;-77
2023/07/06 15:33:24;;;;;;;8.82;5.55;;;;;;;26.39;56.55;-18734.28;5056291;28;20510;-78
2023/07/06 15:35:50;;;;;;;10.80;5.32;;;;;;;26.50;61.11;-18737.28;5076251;28;20121;-77
2023/07/06 15:38:15;;;;;;;9.07;5.05;;;;;;;26.75;57.70;-18744.03;5077061;28;20047;-77
2023/07/06 15:40:45;;;;;;;13.13;5.53;;;;;;;26.64;56.43;-18741.06;5072257;28;20040;-77
2023/07/06 15:43:11;;;;;;;8.40;4.63;;;;;;;26.57;56.39;-18739.03;5074645;28;20494;-77
2023/07/06 15:45:37;;;;;;;7.88;4.80;;;;;;;26.55;56.23;-18738.63;5073978;28;20039;-77
2023/07/06 15:48:02;;;;;;;12.35;5.30;;;;;;;26.72;53.73;-18743.09;5079084;28;20051;-78
2023/07/06 15:50:27;;;;;;;9.02;5.18;;;;;;;27.14;55.06;-18754.28;5078910;28;20044;-77
2023/07/06 15:52:53;;;;;;;8.75;4.60;;;;;;;27.26;53.72;-18757.28;5078988;28;20054;-77
2023/07/06 15:55:18;;;;;;;8.45;4.22;;;;;;;27.22;57.26;-18756.47;5076102;28;20039;-77
2023/07/06 15:57:44;;;;;;;10.32;5.10;;;;;;;27.01;53.88;-18750.91;5068067;28;20084;-77
2023/07/06 16:00:10;;;;;;;9.68;4.53;;;;;;;27.18;52.98;-18755.38;5073312;28;20054;-78
2023/07/06 16:02:35;;;;;;;10.30;4.60;;;;;;;27.17;57.02;-18754.97;5080212;28;20058;-77
2023/07/06 16:05:03;;;;;;;8.73;3.92;;;;;;;27.74;52.98;-18770.09;5073974;28;20638;-78
2023/07/06 16:07:29;;;;;;;7.40;4.25;;;;;;;27.40;54.31;-18761.19;5069738;28;20127;-78
2023/07/06 16:09:54;;;;;;;6.63;4.32;;;;;;;27.63;52.05;-18767.13;5070889;28;20122;-78
2023/07/06 16:12:19;;;;;;;7.93;4.43;;;;;;;27.87;50.62;-18773.59;5059137;28;20040;-78
2023/07/06 16:14:45;;;;;;;6.88;4.32;;;;;;;27.62;51.20;-18767.00;5071241;28;20067;-77
2023/07/06 16:17:10;;;;;;;11.25;4.90;;;;;;;27.70;50.99;-18768.88;5072586;28;20043;-78
2023/07/06 16:19:35;;;;;;;6.45;4.35;;;;;;;27.54;50.89;-18764.69;5070887;28;20156;-77
2023/07/06 16:22:01;;;;;;;8.32;4.47;;;;;;;27.42;50.87;-18761.72;5074351;28;20035;-77
2023/07/06 16:24:26;;;;;;;6.63;4.47;;;;;;;27.04;51.70;-18751.59;5076234;28;20051;-78
2023/07/06 16:26:52;;;;;;;7.55;4.65;;;;;;;27.14;51.64;-18754.28;5056131;28;20059;-77
2023/07/06 16:29:18;;;;;;;8.02;4.60;;;;;;;27.35;52.17;-18759.84;5073610;28;20747;-77
2023/07/06 16:31:43;;;;;;;8.52;4.55;;;;;;;27.58;55.42;-18765.91;5072608;28;20547;-77
2023/07/06 16:34:08;;;;;;;8.45;4.38;;;;;;;27.52;50.23;-18764.16;5071310;28;20044;-78
2023/07/06 16:36:34;;;;;;;8.10;4.50;;;;;;;27.54;49.06;-18764.81;5061772;28;20510;-77
2023/07/06 16:38:59;;;;;;;9.32;4.70;;;;;;;27.35;49.24;-18759.84;5057650;28;20052;-77
2023/07/06 16:41:29;;;;;;;7.82;3.95;;;;;;;27.66;49.84;-18768.06;5070386;28;20044;-77
2023/07/06 16:43:55;;;;;;;7.53;4.18;;;;;;;27.75;47.94;-18770.38;5074663;28;20125;-78
2023/07/06 16:46:21;;;;;;;7.28;3.88;;;;;;;27.32;49.78;-18759.03;5053976;28;20036;-77
2023/07/06 16:48:46;;;;;;;9.18;4.13;;;;;;;27.16;52.10;-18754.84;5073758;28;20112;-77
2023/07/06 16:51:12;;;;;;;7.38;4.13;;;;;;;27.07;52.18;-18752.41;5065377;28;20518;-76
2023/07/06 16:53:41;;;;;;;9.27;4.75;;;;;;;26.80;53.52;-18745.09;5075328;28;20036;-77
2023/07/06 16:56:06;;;;;;;7.53;4.05;;;;;;;26.74;54.30;-18743.63;5074260;28;20072;-77
2023/07/06 16:58:32;;;;;;;7.25;3.80;;;;;;;26.65;55.78;-18741.19;5070096;28;20135;-77
2023/07/06 17:01:01;;;;;;;10.48;4.85;;;;;;;26.64;55.32;-18740.91;5054425;28;21641;-76
2023/07/06 17:03:26;;;;;;;7.53;4.32;;;;;;;26.32;56.82;-18732.66;5054958;28;20054;-77
2023/07/06 17:05:52;;;;;;;8.95;4.70;;;;;;;26.24;55.04;-18730.38;5070314;28;20052;-77
2023/07/06 17:08:17;;;;;;;10.85;4.88;;;;;;;26.20;56.36;-18729.28;5076132;28;20119;-76
2023/07/06 17:10:43;;;;;;;8.60;4.55;;;;;;;26.27;55.73;-18731.31;5075659;28;20037;-76
2023/07/06 17:13:08;;;;;;;8.85;4.25;;;;;;;26.45;57.64;-18736.06;5068077;28;20155;-76
2023/07/06 17:15:34;;;;;;;8.52;5.00;;;;;;;26.34;54.93;-18733.22;5074038;28;20173;-77
2023/07/06 17:17:59;;;;;;;7.32;4.22;;;;;;;26.55;57.01;-18738.63;5070929;28;20047;-79
2023/07/06 17:20:25;;;;;;;9.90;4.82;;;;;;;26.41;56.10;-18734.84;5070814;28;20040;-77
2023/07/06 17:22:51;;;;;;;7.60;4.80;;;;;;;26.25;54.87;-18730.78;5074940;28;20044;-77
2023/07/06 17:25:16;;;;;;;8.60;5.10;;;;;;;26.39;56.56;-18734.44;5082201;28;20154;-77
2023/07/06 17:27:41;;;;;;;9.07;4.90;;;;;;;26.42;57.25;-18735.09;5081470;28;20056;-76
2023/07/06 17:30:07;;;;;;;9.68;4.40;;;;;;;26.68;53.49;-18742.13;5066260;28;20410;-77
2023/07/06 17:32:33;;;;;;;7.30;4.72;;;;;;;26.54;54.80;-18738.34;5084453;28;20072;-76
2023/07/06 17:34:58;;;;;;;11.30;5.20;;;;;;;26.57;55.36;-18739.16;5083671;28;20044;-77
2023/07/06 17:37:24;;;;;;;7.85;4.72;;;;;;;26.26;54.83;-18730.91;5066725;28;20774;-77
2023/07/06 17:39:49;;;;;;;8.13;5.10;;;;;;;26.20;54.52;-18729.44;5078744;28;20039;-77
2023/07/06 17:42:15;;;;;;;10.73;5.35;;;;;;;26.16;55.58;-18728.22;5077589;28;20048;-76
2023/07/06 17:44:41;;;;;;;7.47;5.03;;;;;;;25.97;56.65;-18723.22;5083229;28;20083;-76
2023/07/06 17:47:06;;;;;;;10.52;5.75;;;;;;;25.95;56.79;-18722.81;5083190;28;20507;-76
2023/07/06 17:49:32;;;;;;;7.20;5.05;;;;;;;25.92;57.47;-18721.84;5082967;28;20036;-76
2023/07/06 17:51:57;;;;;;;10.45;4.88;;;;;;;26.12;58.58;-18727.25;5081299;28;20042;-77
2023/07/06 17:54:23;;;;;;;7.50;5.00;;;;;;;26.17;55.74;-18728.63;5083538;28;20105;-77
2023/07/06 17:56:50;;;;;;;10.82;4.68;;;;;;;26.18;55.52;-18728.88;5089270;28;20028;-78
2023/07/06 17:59:16;;;;;;;8.27;3.95;;;;;;;26.31;54.50;-18732.41;5092341;28;20073;-77
2023/07/06 18:01:41;;;;;;;9.20;4.32;;;;;;;26.48;56.62;-18736.72;5089331;28;20032;-78
2023/07/06 18:04:07;;;;;;;9.13;3.63;;;;;;;26.40;53.86;-18734.56;5089489;28;20070;-78
2023/07/06 18:06:33;;;;;;;6.80;3.60;;;;;;;26.38;53.22;-18734.03;5091825;28;20089;-77
2023/07/06 18:09:02;;;;;;;8.13;3.75;;;;;;;26.33;53.95;-18732.94;5092890;28;20043;-78
2023/07/06 18:11:27;;;;;;;8.25;4.38;;;;;;;26.42;54.56;-18735.09;5074640;28;20039;-78
2023/07/06 18:13:53;;;;;;;8.20;4.13;;;;;;;26.14;53.76;-18727.81;5087555;28;20399;-78
2023/07/06 18:16:23;;;;;;;7.90;4.20;;;;;;;26.12;53.68;-18727.25;5072910;28;20044;-77
2023/07/06 18:18:49;;;;;;;6.80;3.95;;;;;;;26.04;54.67;-18725.09;5084121;28;20040;-77
2023/07/06 18:21:14;;;;;;;7.97;5.25;;;;;;;25.93;54.62;-18722.25;5082032;28;20044;-77
2023/07/06 18:23:42;;;;;;;7.68;4.35;;;;;;;25.88;55.60;-18721.03;5081849;28;20096;-77
2023/07/06 18:26:08;;;;;;;8.60;4.30;;;;;;;26.01;52.99;-18724.28;5083187;28;20627;-77
2023/07/06 18:28:34;;;;;;;9.15;4.72;;;;;;;26.04;55.60;-18725.09;5079453;28;20048;-77
2023/07/06 18:31:00;;;;;;;8.13;4.65;;;;;;;26.11;57.35;-18727.00;5084962;28;20024;-77
2023/07/06 18:33:38;;;;;;;8.05;4.22;;;;;;;26.15;56.38;-18728.06;5068483;28;20036;-77
2023/07/06 18:36:03;;;;;;;9.73;4.82;;;;;;;26.04;56.14;-18725.09;5073728;28;20044;-77
2023/07/06 18:38:29;;;;;;;11.90;5.20;;;;;;;25.91;55.02;-18721.72;5082809;28;20085;-77
2023/07/06 18:41:02;;;;;;;7.75;4.63;;;;;;;25.94;58.87;-18722.41;5091022;28;20040;-77
2023/07/06 18:43:28;;;;;;;10.07;4.43;;;;;;;25.64;68.27;-18714.69;5088689;28;20075;-77
2023/07/06 18:45:55;;;;;;;10.93;5.78;;;;;;;25.66;67.85;-18715.09;5083131;28;20517;-77
2023/07/06 18:48:22;;;;;;;6.75;4.32;;;;;;;25.58;69.53;-18713.06;5085307;28;20036;-77
2023/07/06 18:50:48;;;;;;;5.15;3.85;;;;;;;25.54;72.61;-18711.84;5075938;28;20028;-77
2023/07/06 18:53:14;;;;;;;7.32;4.38;;;;;;;25.51;75.35;-18711.16;5084177;28;20052;-77
2023/07/06 18:55:39;;;;;;;8.52;4.60;;;;;;;25.46;74.80;-18709.81;5083555;28;20047;-78
2023/07/06 18:58:05;;;;;;;9.02;4.57;;;;;;;25.43;75.06;-18709.13;5085568;28;20059;-78
2023/07/06 19:00:32;;;;;;;8.13;4.45;;;;;;;25.31;75.43;-18705.88;5082734;28;20090;-77
2023/07/06 19:02:58;;;;;;;9.43;5.00;;;;;;;25.27;76.62;-18704.81;5078510;28;20063;-77
2023/07/06 19:05:23;;;;;;;8.95;4.97;;;;;;;25.21;79.36;-18703.19;5072008;28;20514;-77
2023/07/06 19:07:49;;;;;;;8.90;4.53;;;;;;;24.97;79.62;-18696.81;5078733;28;20051;-78
2023/07/06 19:10:14;;;;;;;9.88;4.93;;;;;;;24.72;82.32;-18690.19;5081361;28;20032;-77
2023/07/06 19:12:40;;;;;;;8.90;4.60;;;;;;;24.61;82.35;-18687.34;5064196;28;20482;-78
2023/07/06 19:15:05;;;;;;;7.75;5.43;;;;;;;24.51;86.04;-18684.63;5077915;28;20119;-78
2023/07/06 19:17:31;;;;;;;9.18;5.57;;;;;;;24.35;89.39;-18680.41;5061081;28;20114;-78
2023/07/06 19:19:59;;;;;;;10.18;6.63;;;;;;;24.18;91.50;-18675.94;5081407;28;20125;-79
2023/07/06 19:22:25;;;;;;;9.75;6.25;;;;;;;24.13;93.05;-18674.47;5083840;28;20236;-77
2023/07/06 19:24:50;;;;;;;9.15;6.22;;;;;;;24.06;93.96;-18672.84;5080742;28;20060;-78
2023/07/06 19:27:16;;;;;;;11.30;6.32;;;;;;;24.04;95.34;-18672.28;5068181;28;20674;-79
2023/07/06 19:29:41;;;;;;;12.48;6.63;;;;;;;23.96;95.70;-18670.13;5062875;28;20626;-77
2023/07/06 19:32:07;;;;;;;11.27;7.05;;;;;;;23.84;97.58;-18667.00;5073320;28;20051;-77
2023/07/06 19:34:32;;;;;;;10.02;6.40;;;;;;;23.77;99.72;-18664.97;5072219;28;20041;-78
2023/07/06 19:36:58;;;;;;;8.90;6.18;;;;;;;23.53;100.00;-18658.59;5087312;28;20036;-77
2023/07/06 19:39:23;;;;;;;11.52;6.90;;;;;;;23.51;100.00;-18658.19;5090396;28;20491;-77
2023/07/06 19:41:49;;;;;;;11.43;7.47;;;;;;;23.43;100.00;-18656.16;5074232;28;20037;-76
2023/07/06 19:44:14;;;;;;;9.90;7.53;;;;;;;23.35;100.00;-18653.97;5072303;28;20852;-78
2023/07/06 19:46:40;;;;;;;11.65;6.97;;;;;;;23.26;100.00;-18651.53;5079688;28;20110;-78
2023/07/06 19:49:06;;;;;;;10.98;7.95;;;;;;;23.18;100.00;-18649.50;5083382;28;20032;-78
2023/07/06 19:51:31;;;;;;;12.32;7.82;;;;;;;23.06;100.00;-18646.13;5068207;28;20046;-78
2023/07/06 19:53:57;;;;;;;10.13;7.88;;;;;;;22.98;100.00;-18644.06;5063220;28;20040;-79
2023/07/06 19:56:26;;;;;;;12.77;7.78;;;;;;;22.89;100.00;-18641.78;5051597;28;20750;-79
2023/07/06 19:58:55;;;;;;;11.73;8.30;;;;;;;22.80;100.00;-18639.31;5066772;28;20147;-79
2023/07/06 20:01:21;;;;;;;10.65;8.50;;;;;;;22.61;100.00;-18634.31;5084147;28;20177;-78
2023/07/06 20:03:46;;;;;;;13.32;8.20;;;;;;;22.62;100.00;-18634.56;5083974;28;20063;-79
2023/07/06 20:06:13;;;;;;;10.15;8.27;;;;;;;22.42;100.00;-18629.16;5082913;28;20148;-77
2023/07/06 20:08:38;;;;;;;10.05;7.53;;;;;;;22.38;100.00;-18628.06;5081460;28;20052;-79
2023/07/06 20:11:04;;;;;;;10.45;7.65;;;;;;;22.26;100.00;-18624.94;5074675;28;20048;-78
2023/07/06 20:13:32;;;;;;;8.73;7.28;;;;;;;22.23;100.00;-18624.25;5079848;28;20040;-79
2023/07/06 20:16:01;;;;;;;11.93;8.20;;;;;;;22.17;100.00;-18622.63;5079105;28;20282;-78
2023/07/06 20:18:27;;;;;;;10.85;8.00;;;;;;;22.16;100.00;-18622.34;5061335;28;20491;-78
2023/07/06 20:20:52;;;;;;;11.32;7.57;;;;;;;22.04;100.00;-18619.09;5063932;28;20127;-78
2023/07/06 20:23:18;;;;;;;13.55;7.82;;;;;;;21.96;100.00;-18616.91;5071056;28;20047;-79
2023/07/06 20:25:44;;;;;;;10.05;8.20;;;;;;;21.81;100.00;-18613.13;5080579;28;20596;-79
2023/07/06 20:28:10;;;;;;;10.30;8.35;;;;;;;21.79;100.00;-18612.44;5085539;28;20836;-79
2023/07/06 20:30:39;;;;;;;12.85;8.30;;;;;;;21.71;100.00;-18610.25;5085548;28;20120;-79
2023/07/06 20:33:04;;;;;;;;;;;;;;;21.70;100.00;-18610.13;5084506;28;20040;-78
2023/07/06 20:35:29;;;;;;;10.60;8.60;;;;;;;21.52;100.00;-18605.38;5085478;28;19946;-79
2023/07/06 20:37:55;;;;;;;12.00;8.52;;;;;;;21.51;100.00;-18605.09;5086892;28;20279;-77
2023/07/06 20:40:21;;;;;;;10.60;8.52;;;;;;;21.50;100.00;-18604.81;5087585;28;20029;-78
2023/07/06 20:42:46;;;;;;;14.45;8.45;;;;;;;21.51;100.00;-18604.97;5082931;28;20577;-79
2023/07/06 20:45:12;;;;;;;16.73;9.02;;;;;;;21.35;100.00;-18600.75;5084382;28;20036;-79
2023/07/06 20:47:37;;;;;;;12.90;8.77;;;;;;;21.18;100.00;-18596.38;5084059;28;20075;-78
2023/07/06 20:50:03;;;;;;;13.05;8.88;;;;;;;21.00;100.00;-18591.34;5085032;28;20456;-78
2023/07/06 20:52:29;;;;;;;10.90;9.00;;;;;;;20.88;100.00;-18588.22;5067459;28;20044;-78
2023/07/06 20:54:54;;;;;;;12.63;9.13;;;;;;;20.69;100.00;-18583.34;5065340;28;20042;-77
2023/07/06 20:57:21;;;;;;;11.07;8.70;;;;;;;20.66;100.00;-18582.38;5085619;28;20036;-78
2023/07/06 20:59:46;;;;;;;11.70;9.80;;;;;;;20.63;100.00;-18581.56;5090150;28;20062;-79
2023/07/06 21:02:13;;;;;;;12.00;10.20;;;;;;;20.68;100.00;-18582.94;5089140;28;20051;-79
2023/07/06 21:04:39;;;;;;;23.23;15.25;;;;;;;20.57;100.00;-18580.06;5087825;28;20079;-79
2023/07/06 21:07:05;;;;;;;20.13;14.68;;;;;;;20.55;100.00;-18579.53;5089703;28;20064;-77
2023/07/06 21:09:31;;;;;;;15.93;13.13;;;;;;;20.38;100.00;-18574.91;5069401;28;20032;-78
2023/07/06 21:11:56;;;;;;;14.35;12.38;;;;;;;20.27;100.00;-18572.16;5064648;28;20039;-78
2023/07/06 21:14:24;;;;;;;14.18;11.13;;;;;;;20.19;100.00;-18569.84;5088463;28;20499;-77
2023/07/06 21:16:50;;;;;;;13.65;10.05;;;;;;;19.95;100.00;-18563.59;5087499;28;20036;-78
2023/07/06 21:19:17;;;;;;;13.38;10.07;;;;;;;19.81;100.00;-18559.78;5085224;28;20051;-78
2023/07/06 21:21:43;;;;;;;13.65;10.63;;;;;;;19.99;100.00;-18564.69;5068674;28;20138;-77
2023/07/06 21:24:09;;;;;;;13.45;10.80;;;;;;;20.06;100.00;-18566.59;5087581;28;20136;-78
2023/07/06 21:26:35;;;;;;;13.27;9.95;;;;;;;20.08;100.00;-18566.88;5084242;28;20066;-77
2023/07/06 21:29:03;;;;;;;13.85;10.48;;;;;;;20.04;100.00;-18566.03;5083785;28;20048;-78
2023/07/06 21:31:28;;;;;;;13.82;10.18;;;;;;;20.05;100.00;-18566.19;5087611;28;20129;-78
2023/07/06 21:33:54;;;;;;;13.07;10.55;;;;;;;19.97;100.00;-18564.00;5086564;28;20119;-79
2023/07/06 21:36:19;;;;;;;14.63;10.77;;;;;;;19.92;100.00;-18562.78;5087703;28;20036;-77
2023/07/06 21:38:45;;;;;;;13.30;11.13;;;;;;;19.89;100.00;-18561.81;5087479;28;20047;-78
2023/07/06 21:41:12;;;;;;;13.45;11.63;;;;;;;19.87;100.00;-18561.41;5086586;28;20040;-77
2023/07/06 21:43:38;;;;;;;14.60;11.65;;;;;;;19.75;100.00;-18558.16;5065309;28;20064;-78
2023/07/06 21:46:04;;;;;;;11.88;10.68;;;;;;;19.77;100.00;-18558.84;5085774;28;20079;-78
2023/07/06 21:48:33;;;;;;;14.18;10.88;;;;;;;19.71;100.00;-18557.06;5086456;28;20055;-77
2023/07/06 21:50:59;;;;;;;15.52;11.30;;;;;;;19.72;100.00;-18557.47;5085479;28;20420;-77
2023/07/06 21:53:25;;;;;;;14.82;10.93;;;;;;;19.56;100.00;-18553.25;5068594;28;20132;-77
2023/07/06 21:55:51;;;;;;;14.20;11.35;;;;;;;19.57;100.00;-18553.50;5084389;28;20036;-77
2023/07/06 21:58:17;;;;;;;15.10;11.68;;;;;;;19.55;100.00;-18552.84;5069979;28;20108;-78
2023/07/06 22:00:46;;;;;;;14.02;11.02;;;;;;;19.43;100.00;-18549.56;5085881;28;20220;-77
2023/07/06 22:03:12;;;;;;;14.57;11.85;;;;;;;19.32;100.00;-18546.72;5081412;28;20043;-79
2023/07/06 22:05:37;;;;;;;14.50;12.60;;;;;;;19.22;100.00;-18543.97;5067674;28;20037;-77
2023/07/06 22:08:03;;;;;;;13.88;11.43;;;;;;;19.05;100.00;-18539.63;5086168;28;20505;-77
2023/07/06 22:10:28;;;;;;;17.52;12.63;;;;;;;18.99;100.00;-18538.00;5068231;28;20069;-76
2023/07/06 22:12:54;;;;;;;15.75;12.38;;;;;;;18.92;100.00;-18536.22;5085625;28;20063;-79
2023/07/06 22:15:19;;;;;;;15.68;12.68;;;;;;;18.89;100.00;-18535.25;5085129;28;20126;-77
2023/07/06 22:17:45;;;;;;;16.17;13.02;;;;;;;18.92;100.00;-18536.06;5084440;28;20515;-78
2023/07/06 22:20:10;;;;;;;17.55;12.60;;;;;;;18.85;100.00;-18534.16;5085639;28;20123;-78
2023/07/06 22:22:36;;;;;;;15.43;12.40;;;;;;;18.89;100.00;-18535.25;5067825;28;20085;-77
2023/07/06 22:25:01;;;;;;;18.45;13.65;;;;;;;18.79;100.00;-18532.66;5069705;28;20044;-77
2023/07/06 22:27:26;;;;;;;18.05;14.68;;;;;;;18.74;100.00;-18531.31;5085145;28;20533;-77
2023/07/06 22:29:52;;;;;;;18.08;15.60;;;;;;;18.75;100.00;-18531.56;5085674;28;20101;-78
2023/07/06 22:32:17;;;;;;;20.08;15.70;;;;;;;18.78;100.00;-18532.41;5070004;28;20057;-77
2023/07/06 22:34:42;;;;;;;19.55;14.13;;;;;;;18.56;100.00;-18526.53;5084316;28;20186;-76
2023/07/06 22:37:08;;;;;;;21.58;15.68;;;;;;;18.53;100.00;-18525.56;5069311;28;20544;-79
2023/07/06 22:39:33;;;;;;;18.27;14.48;;;;;;;18.47;100.00;-18524.06;5084657;28;20044;-77
2023/07/06 22:41:59;;;;;;;19.85;15.18;;;;;;;18.36;100.00;-18521.06;5087097;28;20085;-78
2023/07/06 22:44:24;;;;;;;17.50;14.82;;;;;;;18.36;100.00;-18521.06;5080222;28;20071;-78
2023/07/06 22:46:51;;;;;;;116.43;80.30;;;;;;;18.41;100.00;-18522.44;5079941;28;20071;-77
2023/07/06 22:49:29;;;;;;;26.25;21.88;;;;;;;18.46;100.00;-18523.81;5083231;28;20040;-78
2023/07/06 22:51:55;;;;;;;18.73;15.55;;;;;;;18.58;100.00;-18526.94;5080345;28;20048;-78
2023/07/06 22:54:22;;;;;;;20.23;15.43;;;;;;;18.43;100.00;-18522.97;5082776;28;20052;-77
2023/07/06 22:56:47;;;;;;;18.02;14.73;;;;;;;18.49;100.00;-18524.63;5078961;28;20040;-78
2023/07/06 22:59:13;;;;;;;20.40;14.75;;;;;;;18.44;100.00;-18523.25;5081008;28;20588;-79
2023/07/06 23:01:40;;;;;;;20.95;14.55;;;;;;;18.31;100.00;-18519.72;5078202;28;20044;-77
2023/07/06 23:04:06;;;;;;;17.25;13.85;;;;;;;18.40;100.00;-18522.16;5080688;28;20063;-79
2023/07/06 23:06:32;;;;;;;18.13;14.02;;;;;;;18.31;100.00;-18519.72;5081635;28;20193;-78
2023/07/06 23:09:00;;;;;;;19.30;13.80;;;;;;;18.24;100.00;-18518.06;5082940;28;20044;-79
2023/07/06 23:11:29;;;;;;;16.80;13.98;;;;;;;18.24;100.00;-18518.06;5078083;28;20052;-78
2023/07/06 23:13:55;;;;;;;;;;;;;;;18.22;100.00;-18517.41;5076978;28;20062;-76
2023/07/06 23:16:25;;;;;;;16.42;13.80;;;;;;;17.87;100.00;-18508.13;5079097;28;20537;-78
2023/07/06 23:18:51;;;;;;;17.30;14.05;;;;;;;17.86;100.00;-18507.84;5081173;28;20040;-77